Time;durP1;ratioP1;P1;durP2;ratioP2;P2;SDS_P1;SDS_P2;PMS_P1;PMS_P2;Temp;Humidity;BMP_temperature;BMP_pressure;BME280_temperature;BME280_humidity;BME280_pressure;Samples;Min_cycle;Max_cycle;Signal;HPM_P1;HPM_P2
2023/03/17 00:01:37;;;;;;;8.48;4.28;;;7.10;99.90;;;;;;5093764;28;20051;-57
2023/03/17 00:04:03;;;;;;;7.65;4.25;;;7.20;99.90;;;;;;5095138;28;20028;-57
2023/03/17 00:06:31;;;;;;;10.50;4.00;;;7.20;99.90;;;;;;5094784;28;20036;-58
2023/03/17 00:08:57;;;;;;;10.48;4.53;;;7.20;99.90;;;;;;5095297;28;20044;-59
2023/03/17 00:11:23;;;;;;;8.38;4.13;;;7.20;99.90;;;;;;5093461;28;20722;-57
2023/03/17 00:13:49;;;;;;;10.77;4.97;;;7.20;99.90;;;;;;5094742;28;20659;-57
2023/03/17 00:16:26;;;;;;;8.95;4.22;;;7.30;99.90;;;;;;5094427;28;20054;-57
2023/03/17 00:18:53;;;;;;;10.23;4.20;;;7.30;99.90;;;;;;5094653;28;20480;-57
2023/03/17 00:21:27;;;;;;;8.95;4.30;;;7.30;99.90;;;;;;5093100;28;20396;-57
2023/03/17 00:23:54;;;;;;;8.40;3.92;;;7.30;99.90;;;;;;5094665;28;20040;-58
2023/03/17 00:26:19;;;;;;;9.80;4.00;;;7.40;99.90;;;;;;5094621;28;20047;-59
2023/03/17 00:28:45;;;;;;;9.88;4.55;;;7.40;99.90;;;;;;5094444;28;20032;-58
2023/03/17 00:31:24;;;;;;;8.95;4.25;;;7.30;99.90;;;;;;5094524;28;20421;-58
2023/03/17 00:33:51;;;;;;;8.60;3.95;;;7.30;99.90;;;;;;5094087;28;20496;-58
2023/03/17 00:36:29;;;;;;;7.80;3.58;;;7.30;99.90;;;;;;5094483;28;20059;-58
2023/03/17 00:38:56;;;;;;;9.68;4.82;;;7.30;99.90;;;;;;5094404;28;20054;-58
2023/03/17 00:41:22;;;;;;;8.40;4.25;;;7.30;99.90;;;;;;5093856;28;20051;-58
2023/03/17 00:43:49;;;;;;;8.82;3.95;;;7.30;99.90;;;;;;5094261;28;20442;-58
2023/03/17 00:46:27;;;;;;;9.32;3.97;;;7.30;99.90;;;;;;5092803;28;20068;-58
2023/03/17 00:48:53;;;;;;;7.75;3.58;;;7.30;99.90;;;;;;5094030;28;20047;-58
2023/03/17 00:51:20;;;;;;;8.88;3.90;;;7.40;99.90;;;;;;5092507;28;20051;-57
2023/03/17 00:53:45;;;;;;;8.25;3.88;;;7.30;99.90;;;;;;5094069;28;20142;-58
2023/03/17 00:56:14;;;;;;;8.52;3.88;;;7.30;99.90;;;;;;5094184;28;20127;-58
2023/03/17 00:58:40;;;;;;;8.48;4.40;;;7.30;99.90;;;;;;5093703;28;20128;-58
2023/03/17 01:01:07;;;;;;;8.15;3.72;;;7.30;99.90;;;;;;5093529;28;20105;-58
2023/03/17 01:03:33;;;;;;;7.22;3.60;;;7.30;99.90;;;;;;5093265;28;20395;-58
2023/03/17 01:06:01;;;;;;;8.32;3.90;;;7.30;99.90;;;;;;5094005;28;20040;-58
2023/03/17 01:08:28;;;;;;;8.55;3.88;;;7.20;99.90;;;;;;5093634;28;20032;-58
2023/03/17 01:10:55;;;;;;;9.13;4.97;;;7.20;99.90;;;;;;5075699;28;20050;-58
2023/03/17 01:13:21;;;;;;;8.75;3.80;;;7.30;99.90;;;;;;5093236;28;20055;-58
2023/03/17 01:15:49;;;;;;;8.13;4.10;;;7.30;99.90;;;;;;5092325;28;20056;-58
2023/03/17 01:18:16;;;;;;;8.05;3.55;;;7.30;99.90;;;;;;5093589;28;20105;-58
2023/03/17 01:20:43;;;;;;;7.85;4.20;;;7.20;99.90;;;;;;5093325;28;20044;-58
2023/03/17 01:23:10;;;;;;;9.73;4.20;;;7.30;99.90;;;;;;5093511;28;20404;-58
2023/03/17 01:25:37;;;;;;;7.38;3.65;;;7.30;99.90;;;;;;5093352;28;20294;-58
2023/03/17 01:28:04;;;;;;;7.82;3.90;;;7.20;99.90;;;;;;5092089;28;20047;-58
2023/03/17 01:30:39;;;;;;;7.90;4.15;;;7.30;99.90;;;;;;5092084;28;20040;-58
2023/03/17 01:33:07;;;;;;;7.60;4.18;;;7.30;99.90;;;;;;5093466;28;20082;-58
2023/03/17 01:35:34;;;;;;;8.75;3.42;;;7.30;99.90;;;;;;5093390;28;20032;-58
2023/03/17 01:38:00;;;;;;;7.22;3.40;;;7.30;99.90;;;;;;5093004;28;20092;-58
2023/03/17 01:40:36;;;;;;;8.57;3.50;;;7.30;99.90;;;;;;5092029;28;20052;-58
2023/03/17 01:43:07;;;;;;;7.35;3.75;;;7.30;99.90;;;;;;5092957;28;20036;-58
2023/03/17 01:46:11;;;;;;;6.97;3.38;;;7.30;99.90;;;;;;5093192;28;20047;-58
2023/03/17 01:49:03;;;;;;;11.25;3.78;;;7.30;99.90;;;;;;5092911;28;20074;-58
2023/03/17 01:51:59;;;;;;;6.93;3.42;;;7.30;99.90;;;;;;5081799;28;20396;-59
2023/03/17 01:54:41;;;;;;;8.98;3.85;;;7.30;99.90;;;;;;5092621;28;20046;-58
2023/03/17 01:57:22;;;;;;;7.25;4.13;;;7.30;99.90;;;;;;5092964;28;20044;-58
2023/03/17 01:59:54;;;;;;;8.68;3.33;;;7.30;99.90;;;;;;5092823;28;20040;-58
2023/03/17 02:02:30;;;;;;;;;;;7.30;99.90;;;;;;5093329;28;20070;-58
2023/03/17 02:04:56;;;;;;;6.72;3.25;;;7.30;99.90;;;;;;5092429;28;20383;-58
2023/03/17 02:07:25;;;;;;;8.23;4.00;;;7.40;99.90;;;;;;5091467;28;20175;-58
2023/03/17 02:09:52;;;;;;;7.50;3.58;;;7.30;99.90;;;;;;5074599;28;20050;-59
2023/03/17 02:12:20;;;;;;;7.55;3.63;;;7.30;99.90;;;;;;5092722;28;20040;-59
2023/03/17 02:14:45;;;;;;;7.30;3.67;;;7.30;99.90;;;;;;5092526;28;20091;-58
2023/03/17 02:17:11;;;;;;;7.00;3.92;;;7.30;99.90;;;;;;5092534;28;20083;-58
2023/03/17 02:19:37;;;;;;;9.32;3.60;;;7.30;99.90;;;;;;5092439;28;20397;-58
2023/03/17 02:22:03;;;;;;;6.70;3.40;;;7.30;99.90;;;;;;5090930;28;20058;-58
2023/03/17 02:24:47;;;;;;;8.07;3.67;;;7.30;99.90;;;;;;5091778;28;20035;-58
2023/03/17 02:27:18;;;;;;;6.55;3.25;;;7.30;99.90;;;;;;5092338;28;20078;-57
2023/03/17 02:29:45;;;;;;;7.88;3.70;;;7.30;99.90;;;;;;5092247;28;20044;-58
2023/03/17 02:32:16;;;;;;;7.80;3.25;;;7.30;99.90;;;;;;5092355;28;20076;-58
2023/03/17 02:34:43;;;;;;;7.72;3.28;;;7.30;99.90;;;;;;5092138;28;20124;-58
2023/03/17 02:37:09;;;;;;;6.78;3.40;;;7.20;99.90;;;;;;5092425;28;20127;-58
2023/03/17 02:39:35;;;;;;;8.73;4.03;;;7.30;99.90;;;;;;5091792;28;20189;-58
2023/03/17 02:42:01;;;;;;;7.38;3.60;;;7.30;99.90;;;;;;5092098;28;20047;-58
2023/03/17 02:44:26;;;;;;;7.03;3.40;;;7.30;99.90;;;;;;5090968;28;20115;-58
2023/03/17 02:46:52;;;;;;;8.70;3.58;;;7.30;99.90;;;;;;5092197;28;20476;-58
2023/03/17 02:49:18;;;;;;;7.72;3.75;;;7.20;99.90;;;;;;5091694;28;20039;-58
2023/03/17 02:51:44;;;;;;;7.38;3.55;;;7.20;99.90;;;;;;5091933;28;20035;-59
2023/03/17 02:54:11;;;;;;;8.02;4.05;;;7.20;99.90;;;;;;5091982;28;20079;-58
2023/03/17 02:56:37;;;;;;;7.47;3.50;;;7.20;99.90;;;;;;5092020;28;20196;-58
2023/03/17 02:59:03;;;;;;;10.75;3.75;;;7.20;99.90;;;;;;5090996;28;20032;-60
2023/03/17 03:01:29;;;;;;;8.70;3.80;;;7.20;99.90;;;;;;5073625;28;20047;-58
2023/03/17 03:03:56;;;;;;;8.45;3.72;;;7.20;99.90;;;;;;5090602;28;20415;-58
2023/03/17 03:06:22;;;;;;;9.50;4.18;;;7.20;99.90;;;;;;5091755;28;20071;-58
2023/03/17 03:08:49;;;;;;;7.28;3.67;;;7.20;99.90;;;;;;5091995;28;20036;-58
2023/03/17 03:11:15;;;;;;;9.18;4.13;;;7.20;99.90;;;;;;5091764;28;20119;-58
2023/03/17 03:13:41;;;;;;;7.55;3.67;;;7.20;99.90;;;;;;5091808;28;20130;-58
2023/03/17 03:16:07;;;;;;;7.13;3.53;;;7.10;99.90;;;;;;5091554;28;20151;-58
2023/03/17 03:18:34;;;;;;;9.40;4.13;;;7.10;99.90;;;;;;5092170;28;20067;-58
2023/03/17 03:20:59;;;;;;;6.72;3.30;;;7.10;99.90;;;;;;5091664;28;20044;-58
2023/03/17 03:23:26;;;;;;;7.13;3.40;;;7.10;99.90;;;;;;5091698;28;20062;-58
2023/03/17 03:25:52;;;;;;;9.40;4.30;;;7.10;99.90;;;;;;5091646;28;20040;-57
2023/03/17 03:28:18;;;;;;;8.85;4.18;;;7.10;99.90;;;;;;5091673;28;20040;-57
2023/03/17 03:30:44;;;;;;;8.75;4.32;;;7.10;99.90;;;;;;5091573;28;20040;-57
2023/03/17 03:33:12;;;;;;;10.95;4.03;;;7.10;99.90;;;;;;5091609;28;20036;-57
2023/03/17 03:35:38;;;;;;;8.32;3.92;;;7.10;99.90;;;;;;5091522;28;20071;-57
2023/03/17 03:38:05;;;;;;;7.82;4.15;;;7.10;99.90;;;;;;5095555;28;20044;-57
2023/03/17 03:40:31;;;;;;;7.05;3.92;;;7.00;99.90;;;;;;5095310;28;20089;-57
2023/03/17 03:42:57;;;;;;;11.68;4.20;;;7.10;99.90;;;;;;5095591;28;20036;-57
2023/03/17 03:45:22;;;;;;;8.98;3.65;;;7.00;99.90;;;;;;5094986;28;20473;-57
2023/03/17 03:47:48;;;;;;;7.32;3.33;;;7.00;99.90;;;;;;5095359;28;20055;-57
2023/03/17 03:50:14;;;;;;;7.97;3.65;;;7.10;99.90;;;;;;5095049;28;20111;-58
2023/03/17 03:52:40;;;;;;;7.93;3.78;;;7.00;99.90;;;;;;5095226;28;20089;-57
2023/03/17 03:55:07;;;;;;;8.40;4.22;;;7.10;99.90;;;;;;5095073;28;20040;-57
2023/03/17 03:57:32;;;;;;;7.97;3.63;;;7.10;99.90;;;;;;5095108;28;20051;-57
2023/03/17 03:59:58;;;;;;;7.68;3.78;;;7.10;99.90;;;;;;5094947;28;20043;-57
2023/03/17 04:02:24;;;;;;;7.20;3.90;;;7.00;99.90;;;;;;5095042;28;20078;-57
2023/03/17 04:04:49;;;;;;;9.63;4.13;;;7.10;99.90;;;;;;5093707;28;20047;-57
2023/03/17 04:07:15;;;;;;;8.45;3.67;;;7.10;99.90;;;;;;5094801;28;20040;-57
2023/03/17 04:09:41;;;;;;;9.35;3.75;;;7.10;99.90;;;;;;5094749;28;20040;-56
2023/03/17 04:12:07;;;;;;;7.07;3.92;;;7.10;99.90;;;;;;5094750;28;20044;-57
2023/03/17 04:14:33;;;;;;;10.02;4.18;;;7.10;99.90;;;;;;5094739;28;20059;-57
2023/03/17 04:16:59;;;;;;;10.05;4.10;;;7.00;99.90;;;;;;5095147;28;20115;-55
2023/03/17 04:19:24;;;;;;;9.00;4.30;;;7.10;99.90;;;;;;5094840;28;20044;-57
2023/03/17 04:21:50;;;;;;;8.70;4.63;;;7.10;99.90;;;;;;5094444;28;20676;-57
2023/03/17 04:24:16;;;;;;;9.18;4.60;;;7.00;99.90;;;;;;5094665;28;20160;-57
2023/03/17 04:26:42;;;;;;;8.68;3.95;;;7.10;99.90;;;;;;5094596;28;20040;-58
2023/03/17 04:29:09;;;;;;;9.65;4.07;;;7.10;99.90;;;;;;5094447;28;20043;-58
2023/03/17 04:31:35;;;;;;;8.80;4.38;;;7.00;99.90;;;;;;5094851;28;20055;-58
2023/03/17 04:34:01;;;;;;;7.85;4.40;;;7.00;99.90;;;;;;5093224;28;20182;-58
2023/03/17 04:36:27;;;;;;;7.40;3.80;;;6.90;99.90;;;;;;5094442;28;20119;-58
2023/03/17 04:38:53;;;;;;;8.40;4.20;;;6.90;99.90;;;;;;5093319;28;20039;-58
2023/03/17 04:41:20;;;;;;;7.45;3.88;;;6.90;99.90;;;;;;5093972;28;20037;-58
2023/03/17 04:43:45;;;;;;;7.88;4.25;;;6.90;99.90;;;;;;5093210;28;20048;-59
2023/03/17 04:46:11;;;;;;;9.93;4.57;;;6.80;99.90;;;;;;5092328;28;20102;-58
2023/03/17 04:48:37;;;;;;;8.48;4.07;;;6.80;99.90;;;;;;5093223;28;20402;-57
2023/03/17 04:51:03;;;;;;;8.27;3.97;;;6.80;99.90;;;;;;5093915;28;20544;-58
2023/03/17 04:53:28;;;;;;;10.77;4.20;;;6.80;99.90;;;;;;5094256;28;20036;-57
2023/03/17 04:55:55;;;;;;;8.05;3.80;;;6.70;99.90;;;;;;5093998;28;20502;-57
2023/03/17 04:58:21;;;;;;;8.52;4.38;;;6.70;99.90;;;;;;5093844;28;20119;-57
2023/03/17 05:00:46;;;;;;;7.68;4.13;;;6.80;99.90;;;;;;5093916;28;20162;-57
2023/03/17 05:03:12;;;;;;;8.68;4.15;;;6.60;99.90;;;;;;5093747;28;20040;-57
2023/03/17 05:05:38;;;;;;;9.38;4.60;;;6.70;99.90;;;;;;5093613;28;20036;-57
2023/03/17 05:08:04;;;;;;;8.55;3.88;;;6.70;99.90;;;;;;5093807;28;20400;-57
2023/03/17 05:10:29;;;;;;;7.22;3.90;;;6.70;99.90;;;;;;5093354;28;20040;-57
2023/03/17 05:12:55;;;;;;;7.95;4.25;;;6.60;99.90;;;;;;5093551;28;20028;-57
2023/03/17 05:15:21;;;;;;;10.38;4.10;;;6.60;99.90;;;;;;5092358;28;20065;-57
2023/03/17 05:17:46;;;;;;;9.90;4.25;;;6.60;99.90;;;;;;5093543;28;20084;-57
2023/03/17 05:20:12;;;;;;;7.18;3.60;;;6.60;99.90;;;;;;5093592;28;20126;-59
2023/03/17 05:22:38;;;;;;;8.82;4.43;;;6.60;99.90;;;;;;5092055;28;20040;-57
2023/03/17 05:25:05;;;;;;;9.05;3.78;;;6.60;99.90;;;;;;5093483;28;20206;-57
2023/03/17 05:27:31;;;;;;;7.20;3.45;;;6.60;99.90;;;;;;5093437;28;20051;-57
2023/03/17 05:29:57;;;;;;;8.63;3.58;;;6.60;99.90;;;;;;5092063;28;20102;-57
2023/03/17 05:32:23;;;;;;;8.98;4.22;;;6.70;99.90;;;;;;5092214;28;20758;-57
2023/03/17 05:34:49;;;;;;;9.73;3.92;;;6.60;99.90;;;;;;5093350;28;20664;-60
2023/03/17 05:37:16;;;;;;;7.82;3.58;;;6.70;99.90;;;;;;5092066;28;20036;-57
2023/03/17 05:39:42;;;;;;;8.80;3.60;;;6.70;99.90;;;;;;5092866;28;20040;-57
2023/03/17 05:42:08;;;;;;;7.25;3.50;;;6.70;99.90;;;;;;5092651;28;20122;-57
2023/03/17 05:44:34;;;;;;;9.45;4.30;;;6.70;99.90;;;;;;5091792;28;20177;-58
2023/03/17 05:47:00;;;;;;;7.15;3.50;;;6.80;99.90;;;;;;5092811;28;20480;-58
2023/03/17 05:49:27;;;;;;;10.73;3.70;;;6.80;99.90;;;;;;5091501;28;20051;-57
2023/03/17 05:51:54;;;;;;;7.55;3.28;;;6.80;99.90;;;;;;5091534;28;20044;-57
2023/03/17 05:54:20;;;;;;;9.40;4.00;;;6.80;99.90;;;;;;5092848;28;20119;-57
2023/03/17 05:56:46;;;;;;;9.95;3.55;;;6.90;99.90;;;;;;5091666;28;20480;-57
2023/03/17 05:59:14;;;;;;;6.32;3.30;;;6.90;99.90;;;;;;5092178;28;20055;-58
2023/03/17 06:01:40;;;;;;;8.98;3.53;;;6.90;99.90;;;;;;5092728;28;20396;-57
2023/03/17 06:04:06;;;;;;;8.77;3.50;;;7.00;99.90;;;;;;5092617;28;20044;-58
2023/03/17 06:06:32;;;;;;;10.32;3.88;;;7.00;99.90;;;;;;5074643;28;20046;-58
2023/03/17 06:08:58;;;;;;;7.63;3.72;;;6.90;99.90;;;;;;5091371;28;20039;-57
2023/03/17 06:11:25;;;;;;;7.53;3.35;;;7.00;99.90;;;;;;5091527;28;20043;-59
2023/03/17 06:13:51;;;;;;;7.53;3.45;;;7.00;99.90;;;;;;5090828;28;20105;-57
2023/03/17 06:16:17;;;;;;;8.90;3.70;;;7.10;99.90;;;;;;5092319;28;20569;-57
2023/03/17 06:18:44;;;;;;;7.93;3.53;;;7.10;99.90;;;;;;5092228;28;20044;-57
2023/03/17 06:21:10;;;;;;;7.63;3.70;;;7.10;99.90;;;;;;5092288;28;20399;-57
2023/03/17 06:23:36;;;;;;;8.25;3.38;;;7.10;99.90;;;;;;5092007;28;20422;-58
2023/03/17 06:26:01;;;;;;;8.75;3.47;;;7.20;99.90;;;;;;5092228;28;20101;-58
2023/03/17 06:28:27;;;;;;;8.95;3.42;;;7.20;99.90;;;;;;5092487;28;20492;-57
2023/03/17 06:30:53;;;;;;;7.55;3.67;;;7.20;99.90;;;;;;5092352;28;20424;-57
2023/03/17 06:33:18;;;;;;;8.90;3.45;;;7.20;99.90;;;;;;5092461;28;20500;-59
2023/03/17 06:35:44;;;;;;;7.70;3.35;;;7.20;99.90;;;;;;5090594;28;20036;-58
2023/03/17 06:38:10;;;;;;;7.20;3.58;;;7.20;99.90;;;;;;5090685;28;20119;-57
2023/03/17 06:40:36;;;;;;;11.40;3.80;;;7.20;99.90;;;;;;5090547;28;20035;-58
2023/03/17 06:43:02;;;;;;;6.88;3.40;;;7.20;99.90;;;;;;5090728;28;20101;-58
2023/03/17 06:45:28;;;;;;;10.00;4.15;;;7.20;99.90;;;;;;5090342;28;20039;-58
2023/03/17 06:47:53;;;;;;;9.50;3.92;;;7.30;99.90;;;;;;5090482;28;20127;-59
2023/03/17 06:50:19;;;;;;;7.40;3.33;;;7.30;99.90;;;;;;5090523;28;20040;-59
2023/03/17 06:52:45;;;;;;;9.68;3.85;;;7.30;99.90;;;;;;5090369;28;20396;-59
2023/03/17 06:55:11;;;;;;;9.18;4.05;;;7.30;99.90;;;;;;5090353;28;20044;-58
2023/03/17 06:57:37;;;;;;;8.82;3.90;;;7.30;99.90;;;;;;5089262;28;20410;-58
2023/03/17 07:00:07;;;;;;;9.00;4.07;;;7.30;99.90;;;;;;5078974;28;20040;-58
2023/03/17 07:02:33;;;;;;;8.13;3.58;;;7.30;99.90;;;;;;5076175;28;20484;-58
2023/03/17 07:04:59;;;;;;;7.57;3.83;;;7.30;99.90;;;;;;5081317;28;20032;-58
2023/03/17 07:07:28;;;;;;;8.00;4.10;;;7.30;99.90;;;;;;5088184;28;20098;-59
2023/03/17 07:09:54;;;;;;;8.77;3.67;;;7.30;99.90;;;;;;5091864;28;20051;-59
2023/03/17 07:12:20;;;;;;;8.18;3.67;;;7.40;99.90;;;;;;5094701;28;20487;-58
2023/03/17 07:14:46;;;;;;;7.80;3.80;;;7.30;99.90;;;;;;5094351;28;20438;-58
2023/03/17 07:17:13;;;;;;;8.68;3.70;;;7.30;99.90;;;;;;5075849;28;20196;-58
2023/03/17 07:19:40;;;;;;;8.48;3.70;;;7.30;99.90;;;;;;5094419;28;20044;-58
2023/03/17 07:22:06;;;;;;;9.07;4.50;;;7.40;99.90;;;;;;5094357;28;20040;-58
2023/03/17 07:24:32;;;;;;;8.55;4.47;;;7.40;99.90;;;;;;5094378;28;20032;-58
2023/03/17 07:26:58;;;;;;;8.65;4.03;;;7.50;99.90;;;;;;5094215;28;20176;-58
2023/03/17 07:29:24;;;;;;;9.48;3.80;;;7.50;99.90;;;;;;5094152;28;20584;-58
2023/03/17 07:31:49;;;;;;;8.60;3.83;;;7.50;99.90;;;;;;5094260;28;20048;-58
2023/03/17 07:34:16;;;;;;;8.02;3.90;;;7.60;99.90;;;;;;5094062;28;20456;-58
2023/03/17 07:36:42;;;;;;;9.18;3.97;;;7.80;99.90;;;;;;5094089;28;20071;-58
2023/03/17 07:39:07;;;;;;;8.57;4.20;;;7.70;99.90;;;;;;5093843;28;20447;-58
2023/03/17 07:41:33;;;;;;;8.57;3.97;;;7.80;99.90;;;;;;5094030;28;20507;-58
2023/03/17 07:44:00;;;;;;;8.45;4.40;;;7.90;99.90;;;;;;5092682;28;20068;-58
2023/03/17 07:46:26;;;;;;;9.45;4.03;;;8.10;99.90;;;;;;5093981;28;20067;-58
2023/03/17 07:48:52;;;;;;;8.80;4.07;;;8.20;99.90;;;;;;5093677;28;20460;-58
2023/03/17 07:51:21;;;;;;;7.25;3.95;;;8.30;99.90;;;;;;5093600;28;20028;-58
2023/03/17 07:53:48;;;;;;;10.70;3.80;;;8.50;99.90;;;;;;5093557;28;20105;-58
2023/03/17 07:56:16;;;;;;;8.60;3.85;;;8.80;99.90;;;;;;5093244;28;20051;-58
2023/03/17 07:58:42;;;;;;;8.18;3.70;;;8.80;99.90;;;;;;5093568;28;20495;-57
2023/03/17 08:01:08;;;;;;;9.38;4.40;;;8.80;99.90;;;;;;5093574;28;20047;-58
2023/03/17 08:03:35;;;;;;;6.78;3.65;;;8.90;99.90;;;;;;5093562;28;20040;-59
2023/03/17 08:06:02;;;;;;;9.95;4.03;;;8.90;99.90;;;;;;5093300;28;20123;-58
2023/03/17 08:08:28;;;;;;;9.45;3.70;;;8.90;99.90;;;;;;5093683;28;20046;-58
2023/03/17 08:11:02;;;;;;;8.73;4.15;;;8.90;99.90;;;;;;5093337;28;20040;-58
2023/03/17 08:13:28;;;;;;;8.52;3.65;;;9.00;99.90;;;;;;5093565;28;20048;-58
2023/03/17 08:15:54;;;;;;;9.95;3.55;;;9.00;99.90;;;;;;5093249;28;20471;-58
2023/03/17 08:18:20;;;;;;;9.27;3.88;;;9.00;99.90;;;;;;5093286;28;20170;-58
2023/03/17 08:20:46;;;;;;;7.72;3.85;;;9.00;99.90;;;;;;5092740;28;20070;-58
2023/03/17 08:23:13;;;;;;;8.32;3.85;;;9.10;99.90;;;;;;5092961;28;20306;-60
2023/03/17 08:25:38;;;;;;;9.50;3.90;;;9.10;99.90;;;;;;5093409;28;20047;-56
2023/03/17 08:28:04;;;;;;;8.57;3.97;;;9.10;99.90;;;;;;5093417;28;20032;-58
2023/03/17 08:30:31;;;;;;;6.97;3.38;;;9.00;99.90;;;;;;5091645;28;20040;-58
2023/03/17 08:32:56;;;;;;;8.93;3.92;;;9.10;99.90;;;;;;5093013;28;20044;-59
2023/03/17 08:35:22;;;;;;;8.02;3.75;;;9.10;99.90;;;;;;5093277;28;20117;-58
2023/03/17 08:37:48;;;;;;;9.43;4.35;;;9.20;99.90;;;;;;5092940;28;20476;-58
2023/03/17 08:40:16;;;;;;;8.00;4.07;;;9.20;99.90;;;;;;5091811;28;20168;-58
2023/03/17 08:42:43;;;;;;;10.02;5.05;;;9.20;99.90;;;;;;5092488;28;20048;-59
2023/03/17 08:45:10;;;;;;;10.02;3.60;;;9.20;99.90;;;;;;5092644;28;20040;-58
2023/03/17 08:47:37;;;;;;;8.05;3.90;;;9.20;99.90;;;;;;5092912;28;20035;-58
2023/03/17 08:50:05;;;;;;;8.45;4.28;;;9.30;99.90;;;;;;5092602;28;20036;-60
2023/03/17 08:52:32;;;;;;;7.28;3.15;;;9.30;99.90;;;;;;5092208;28;20093;-58
2023/03/17 08:54:58;;;;;;;7.72;3.45;;;9.30;99.90;;;;;;5091330;28;20119;-58
2023/03/17 08:57:24;;;;;;;7.80;3.40;;;9.40;99.90;;;;;;5092763;28;20128;-58
2023/03/17 08:59:50;;;;;;;7.53;3.75;;;9.30;99.90;;;;;;5092366;28;20051;-58
2023/03/17 09:02:16;;;;;;;8.57;4.30;;;9.50;99.90;;;;;;5092134;28;20037;-58
2023/03/17 09:04:42;;;;;;;9.40;4.05;;;9.60;99.90;;;;;;5092670;28;20098;-57
2023/03/17 09:07:09;;;;;;;8.00;4.22;;;9.60;99.90;;;;;;5092264;28;20044;-58
2023/03/17 09:09:36;;;;;;;8.57;3.50;;;9.70;99.90;;;;;;5086369;28;20093;-58
2023/03/17 09:12:05;;;;;;;7.60;4.38;;;9.70;99.90;;;;;;5080132;28;20044;-58
2023/03/17 09:14:31;;;;;;;8.20;3.83;;;9.80;99.90;;;;;;5079474;28;20060;-58
2023/03/17 09:16:57;;;;;;;7.22;4.05;;;9.90;99.90;;;;;;5080073;28;20048;-58
2023/03/17 09:19:23;;;;;;;8.82;3.35;;;10.10;99.90;;;;;;5070673;28;20043;-58
2023/03/17 09:21:50;;;;;;;8.60;3.53;;;10.30;99.90;;;;;;5053787;28;20052;-58
2023/03/17 09:24:16;;;;;;;7.60;3.50;;;10.50;99.90;;;;;;5072364;28;20041;-58
2023/03/17 09:26:41;;;;;;;7.97;3.67;;;10.60;99.90;;;;;;5070166;28;20036;-58
2023/03/17 09:29:07;;;;;;;8.23;3.60;;;10.70;99.90;;;;;;5071474;28;20041;-59
2023/03/17 09:31:37;;;;;;;9.45;4.18;;;10.70;99.90;;;;;;5071853;28;20503;-58
2023/03/17 09:34:04;;;;;;;7.30;4.15;;;10.80;99.90;;;;;;5070575;28;20047;-58
2023/03/17 09:36:31;;;;;;;6.35;3.20;;;10.90;99.90;;;;;;5071501;28;20512;-58
2023/03/17 09:38:58;;;;;;;8.18;3.75;;;11.10;99.90;;;;;;5071520;28;20040;-59
2023/03/17 09:41:40;;;;;;;8.70;3.22;;;11.10;99.90;;;;;;5069889;28;20128;-59
2023/03/17 09:44:24;;;;;;;8.95;3.90;;;11.30;99.90;;;;;;5070161;28;20039;-62
2023/03/17 09:46:56;;;;;;;8.32;3.67;;;11.40;99.90;;;;;;5071328;28;20048;-59
2023/03/17 09:49:43;;;;;;;9.70;3.63;;;11.40;99.90;;;;;;5079025;28;20118;-58
2023/03/17 09:52:15;;;;;;;7.55;4.00;;;11.40;99.90;;;;;;5091227;28;20085;-58
2023/03/17 09:54:42;;;;;;;9.25;4.07;;;11.50;99.90;;;;;;5091501;28;20464;-58
2023/03/17 09:57:18;;;;;;;7.97;3.78;;;11.60;99.90;;;;;;5091530;28;20408;-58
2023/03/17 09:59:50;;;;;;;7.40;3.67;;;11.60;99.90;;;;;;5090276;28;20047;-58
2023/03/17 10:02:16;;;;;;;;;;;11.70;99.90;;;;;;5091845;28;20048;-58
2023/03/17 10:04:43;;;;;;;9.10;3.78;;;11.80;99.90;;;;;;5090908;28;19924;-56
2023/03/17 10:07:15;;;;;;;7.78;3.67;;;11.90;99.90;;;;;;5091234;28;20592;-58
2023/03/17 10:09:57;;;;;;;8.68;4.05;;;11.90;99.90;;;;;;5089788;28;20040;-58
2023/03/17 10:12:45;;;;;;;7.45;3.75;;;11.90;99.90;;;;;;5090822;28;20535;-58
2023/03/17 10:15:26;;;;;;;8.00;3.88;;;11.90;99.90;;;;;;5090898;28;20052;-58
2023/03/17 10:17:53;;;;;;;8.40;3.97;;;11.80;99.90;;;;;;5089875;28;20051;-59
2023/03/17 10:20:29;;;;;;;8.32;4.00;;;11.90;99.90;;;;;;5091114;28;20111;-58
2023/03/17 10:22:58;;;;;;;9.50;4.30;;;12.00;99.90;;;;;;5089591;28;20052;-58
2023/03/17 10:25:32;;;;;;;7.80;3.65;;;12.00;99.90;;;;;;5086710;28;20131;-58
2023/03/17 10:28:03;;;;;;;7.60;3.78;;;12.20;99.90;;;;;;5081402;28;20123;-58
2023/03/17 10:30:34;;;;;;;9.90;4.10;;;12.20;99.90;;;;;;5080628;28;20051;-58
2023/03/17 10:33:03;;;;;;;8.63;4.32;;;12.20;99.90;;;;;;5081424;28;20036;-58
2023/03/17 10:35:34;;;;;;;7.07;3.60;;;12.40;99.90;;;;;;5078741;28;21036;-58
2023/03/17 10:38:12;;;;;;;7.07;4.18;;;12.30;99.90;;;;;;5079370;28;20043;-58
2023/03/17 10:40:38;;;;;;;9.20;4.72;;;12.50;99.90;;;;;;5089984;28;20032;-58
2023/03/17 10:43:07;;;;;;;8.40;4.18;;;12.50;99.90;;;;;;5090399;28;20044;-58
2023/03/17 10:45:40;;;;;;;9.48;4.97;;;12.50;99.90;;;;;;5084435;28;20444;-58
2023/03/17 10:48:15;;;;;;;10.00;4.45;;;12.60;99.90;;;;;;5080352;28;20048;-59
2023/03/17 10:50:40;;;;;;;11.52;4.68;;;12.60;99.90;;;;;;5086359;28;20048;-59
2023/03/17 10:53:07;;;;;;;9.60;5.00;;;12.70;99.90;;;;;;5074572;28;20370;-58
2023/03/17 10:55:43;;;;;;;9.38;4.72;;;12.80;99.90;;;;;;5090249;28;20036;-59
2023/03/17 10:58:09;;;;;;;9.27;4.70;;;13.00;99.90;;;;;;5091565;28;20489;-58
2023/03/17 11:00:37;;;;;;;8.90;4.55;;;12.90;99.90;;;;;;5090354;28;20047;-58
2023/03/17 11:03:23;;;;;;;9.68;5.10;;;12.80;99.90;;;;;;5091402;28;20044;-58
2023/03/17 11:05:56;;;;;;;9.70;4.80;;;13.20;99.90;;;;;;5090431;28;20380;-58
2023/03/17 11:08:22;;;;;;;11.50;6.25;;;13.20;99.90;;;;;;5079486;28;20412;-59
2023/03/17 11:10:55;;;;;;;9.25;4.88;;;13.30;99.90;;;;;;5083818;28;20488;-60
2023/03/17 11:13:21;;;;;;;9.23;5.00;;;13.30;99.90;;;;;;5084052;28;20032;-59
2023/03/17 11:16:06;;;;;;;10.48;5.07;;;13.30;99.90;;;;;;5083549;28;20186;-59
2023/03/17 11:18:36;;;;;;;9.30;4.88;;;13.50;99.90;;;;;;5080022;28;20384;-58
2023/03/17 11:21:18;;;;;;;10.32;4.75;;;13.60;99.90;;;;;;5080218;28;20086;-59
2023/03/17 11:23:46;;;;;;;;;;;13.70;99.90;;;;;;5082081;28;20033;-59
2023/03/17 11:26:17;;;;;;;10.77;4.80;;;13.70;99.90;;;;;;5080014;28;20284;-58
2023/03/17 11:28:50;;;;;;;13.00;5.53;;;13.80;99.90;;;;;;5079076;28;20499;-58
2023/03/17 11:31:32;;;;;;;10.13;5.00;;;13.80;99.90;;;;;;5081090;28;20032;-57
2023/03/17 11:34:09;;;;;;;9.50;5.47;;;13.90;99.90;;;;;;5073703;28;20489;-58
2023/03/17 11:36:50;;;;;;;10.00;4.85;;;13.90;99.90;;;;;;5074196;28;20043;-59
2023/03/17 11:39:22;;;;;;;8.38;4.60;;;14.00;99.90;;;;;;5082720;28;20047;-58
2023/03/17 11:42:12;;;;;;;9.50;4.70;;;14.00;99.90;;;;;;5073466;28;20040;-58
2023/03/17 11:44:54;;;;;;;12.40;6.10;;;14.10;99.90;;;;;;5070728;28;20036;-58
2023/03/17 11:47:38;;;;;;;7.97;4.80;;;14.20;99.90;;;;;;5070069;28;20043;-59
2023/03/17 11:50:19;;;;;;;10.43;5.50;;;14.40;99.90;;;;;;5082374;28;20452;-58
2023/03/17 11:53:09;;;;;;;11.25;5.10;;;14.40;99.90;;;;;;5075984;28;20496;-58
2023/03/17 11:55:40;;;;;;;10.98;5.60;;;14.60;99.90;;;;;;5070923;28;20040;-58
2023/03/17 11:58:15;;;;;;;10.07;5.15;;;14.80;99.90;;;;;;5072316;28;20384;-58
2023/03/17 12:00:49;;;;;;;10.95;5.40;;;14.80;99.90;;;;;;5074143;28;20175;-58
2023/03/17 12:03:37;;;;;;;8.55;4.95;;;15.00;99.90;;;;;;5074472;28;20041;-58
2023/03/17 12:06:10;;;;;;;9.07;5.00;;;15.00;99.90;;;;;;5074945;28;20412;-58
2023/03/17 12:08:47;;;;;;;11.90;5.93;;;15.20;99.90;;;;;;5074529;28;20073;-58
2023/03/17 12:11:23;;;;;;;11.15;5.32;;;15.30;99.90;;;;;;5074471;28;20067;-58
2023/03/17 12:13:59;;;;;;;9.40;4.95;;;15.20;99.90;;;;;;5073030;28;20059;-58
2023/03/17 12:16:34;;;;;;;11.30;5.60;;;15.20;99.90;;;;;;5074270;28;20060;-58
2023/03/17 12:19:35;;;;;;;10.27;5.20;;;15.20;99.90;;;;;;5074403;28;20040;-58
2023/03/17 12:22:17;;;;;;;10.48;5.47;;;15.30;99.90;;;;;;5068886;28;20088;-58
2023/03/17 12:25:01;;;;;;;10.00;5.50;;;15.60;99.90;;;;;;5072989;28;20048;-58
2023/03/17 12:28:02;;;;;;;12.63;6.10;;;15.60;99.90;;;;;;5074064;28;20087;-58
2023/03/17 12:30:48;;;;;;;10.00;5.68;;;15.70;99.90;;;;;;5074276;28;20037;-58
2023/03/17 12:33:21;;;;;;;11.43;6.18;;;15.50;99.90;;;;;;5074127;28;20036;-57
2023/03/17 12:35:47;;;;;;;9.82;5.70;;;15.70;99.90;;;;;;5072991;28;20041;-59
2023/03/17 12:38:34;;;;;;;9.23;5.50;;;15.70;99.90;;;;;;5073929;28;20079;-58
2023/03/17 12:41:18;;;;;;;12.80;5.60;;;15.80;99.90;;;;;;5072924;28;20036;-58
2023/03/17 12:44:15;;;;;;;9.98;6.22;;;15.90;99.90;;;;;;5072633;28;20555;-58
2023/03/17 12:46:50;;;;;;;11.52;6.32;;;15.90;99.90;;;;;;5072409;28;20052;-58
2023/03/17 12:49:47;;;;;;;10.23;6.10;;;15.80;99.90;;;;;;5080503;28;20089;-58
2023/03/17 12:52:32;;;;;;;12.43;6.47;;;15.80;99.90;;;;;;5083670;28;20076;-58
2023/03/17 12:55:01;;;;;;;10.65;5.72;;;15.90;99.90;;;;;;5083875;28;20063;-59
2023/03/17 12:57:36;;;;;;;11.10;6.43;;;15.70;99.90;;;;;;5072052;28;20295;-59
2023/03/17 13:00:19;;;;;;;12.57;6.47;;;15.70;99.90;;;;;;5073665;28;20071;-58
2023/03/17 13:03:09;;;;;;;10.45;6.05;;;15.40;99.90;;;;;;5073432;28;20140;-58
2023/03/17 13:05:36;;;;;;;12.15;6.30;;;15.40;99.90;;;;;;5073005;28;20052;-58